createdAt,value
2024-01-18T00:00:09.352Z,99186.50
2024-01-18T00:00:41.100Z,99185.19
2024-01-18T00:01:12.821Z,99187.13
2024-01-18T00:01:50.434Z,99193.66
2024-01-18T00:02:23.759Z,99195.75
2024-01-18T00:02:55.383Z,99199.34
2024-01-18T00:03:27.194Z,99197.53
2024-01-18T00:03:59.756Z,99197.53
2024-01-18T00:04:31.376Z,99203.03
2024-01-18T00:05:02.994Z,99205.13
2024-01-18T00:05:34.588Z,99202.56
2024-01-18T00:06:06.892Z,99201.88
2024-01-18T00:06:38.626Z,99200.06
2024-01-18T00:07:10.401Z,99204.59
2024-01-18T00:07:42.012Z,99201.19
2024-01-18T00:08:13.559Z,99202.63
2024-01-18T00:08:45.109Z,99199.09
2024-01-18T00:09:16.875Z,99196.63
2024-01-18T00:09:48.518Z,99201.81
2024-01-18T00:10:27.711Z,99200.03
2024-01-18T00:11:00.775Z,99203.28
2024-01-18T00:11:32.328Z,99197.91
2024-01-18T00:12:04.217Z,99198.06
2024-01-18T00:12:37.780Z,99204.28
2024-01-18T00:13:09.494Z,99202.50
2024-01-18T00:13:41.042Z,99203.31
2024-01-18T00:14:12.575Z,99204.97
2024-01-18T00:14:44.284Z,99207.91
2024-01-18T00:15:16.072Z,99206.94
2024-01-18T00:15:47.630Z,99205.13
2024-01-18T00:16:19.184Z,99207.41
2024-01-18T00:16:50.758Z,99207.88
2024-01-18T00:17:22.370Z,99206.91
2024-01-18T00:17:54.260Z,99206.56
2024-01-18T00:18:26.139Z,99211.16
2024-01-18T00:18:58.545Z,99205.44
2024-01-18T00:19:30.431Z,99216.66
2024-01-18T00:20:02.048Z,99205.94
2024-01-18T00:20:33.656Z,99214.41
2024-01-18T00:21:05.792Z,99214.75
2024-01-18T00:21:37.897Z,99209.91
2024-01-18T00:22:09.528Z,99211.19
2024-01-18T00:22:41.195Z,99208.56
2024-01-18T00:23:13.048Z,99213.31
2024-01-18T00:23:44.610Z,99221.25
2024-01-18T00:24:16.432Z,99218.66
2024-01-18T00:24:47.996Z,99218.31
2024-01-18T00:25:20.647Z,99217.31
2024-01-18T00:25:52.229Z,99218.25
2024-01-18T00:26:23.777Z,99215.84
2024-01-18T00:26:55.436Z,99217.31
2024-01-18T00:27:27.122Z,99221.22
2024-01-18T00:27:58.784Z,99222.91
2024-01-18T00:28:30.328Z,99218.03
2024-01-18T00:29:02.129Z,99221.59
2024-01-18T00:29:34.473Z,99222.59
2024-01-18T00:30:06.812Z,99220.13
2024-01-18T00:30:39.053Z,99227.59
2024-01-18T00:31:10.633Z,99224.19
2024-01-18T00:31:42.283Z,99227.75
2024-01-18T00:32:13.908Z,99225.81
2024-01-18T00:32:45.986Z,99224.66
2024-01-18T00:33:17.681Z,99226.44
2024-01-18T00:33:49.419Z,99231.66
2024-01-18T00:34:21.017Z,99224.66
2024-01-18T00:34:53.017Z,99230.50
2024-01-18T00:35:24.626Z,99231.78
2024-01-18T00:35:56.325Z,99231.13
2024-01-18T00:36:28.695Z,99232.44
2024-01-18T00:37:00.423Z,99233.56
2024-01-18T00:37:32.049Z,99230.63
2024-01-18T00:38:04.069Z,99235.84
2024-01-18T00:38:35.610Z,99235.03
2024-01-18T00:39:11.767Z,99229.81
2024-01-18T00:39:43.977Z,99233.88
2024-01-18T00:40:15.633Z,99237.16
2024-01-18T00:40:47.342Z,99236.81
2024-01-18T00:41:18.911Z,99238.13
2024-01-18T00:41:50.623Z,99241.22
2024-01-18T00:42:22.273Z,99239.97
2024-01-18T00:42:54.385Z,99244.03
2024-01-18T00:43:26.141Z,99248.94
2024-01-18T00:43:57.666Z,99249.25
2024-01-18T00:44:29.243Z,99244.06
2024-01-18T00:45:00.893Z,99239.66
2024-01-18T00:45:32.479Z,99246.50
2024-01-18T00:46:05.335Z,99242.91
2024-01-18T00:46:36.937Z,99244.53
2024-01-18T00:47:08.522Z,99245.34
2024-01-18T00:47:40.059Z,99252.50
2024-01-18T00:48:11.734Z,99250.22
2024-01-18T00:48:43.501Z,99246.31
2024-01-18T00:49:15.359Z,99249.75
2024-01-18T00:49:47.166Z,99243.41
2024-01-18T00:50:18.979Z,99242.44
2024-01-18T00:50:50.793Z,99250.72
2024-01-18T00:51:22.569Z,99248.44
2024-01-18T00:51:54.207Z,99252.00
2024-01-18T00:52:26.504Z,99246.31
2024-01-18T00:52:58.116Z,99253.63
2024-01-18T00:53:29.716Z,99252.00
2024-01-18T00:54:03.418Z,99253.47
2024-01-18T00:54:35.091Z,99250.88
2024-01-18T00:55:07.859Z,99258.03
2024-01-18T00:55:39.505Z,99247.63
2024-01-18T00:56:11.462Z,99249.41
2024-01-18T00:56:43.209Z,99245.84
2024-01-18T00:57:15.077Z,99244.38
2024-01-18T00:57:46.682Z,99242.59
2024-01-18T00:58:18.317Z,99247.97
2024-01-18T00:58:50.972Z,99256.09
2024-01-18T00:59:22.720Z,99253.16
2024-01-18T00:59:54.460Z,99243.88
2024-01-18T01:00:26.046Z,99251.22
2024-01-18T01:00:57.764Z,99246.00
2024-01-18T01:01:29.393Z,99259.47
2024-01-18T01:02:00.950Z,99246.81
2024-01-18T01:02:32.564Z,99246.97
2024-01-18T01:03:04.442Z,99246.97
2024-01-18T01:03:36.347Z,99252.50
2024-01-18T01:04:08.252Z,99256.22
2024-01-18T01:04:39.910Z,99259.66
2024-01-18T01:05:11.644Z,99256.41
2024-01-18T01:05:43.316Z,99261.94
2024-01-18T01:06:14.914Z,99261.28
2024-01-18T01:06:46.508Z,99256.72
2024-01-18T01:07:18.252Z,99260.16
2024-01-18T01:07:49.867Z,99260.31
2024-01-18T01:08:21.500Z,99263.25
2024-01-18T01:08:53.193Z,99264.03
2024-01-18T01:09:25.616Z,99260.31
2024-01-18T01:09:57.469Z,99253.81
2024-01-18T01:10:29.044Z,99258.97
2024-01-18T01:11:06.676Z,99257.06
2024-01-18T01:11:38.269Z,99264.53
2024-01-18T01:12:09.924Z,99264.38
2024-01-18T01:12:41.611Z,99255.28
2024-01-18T01:13:13.340Z,99260.47
2024-01-18T01:13:45.957Z,99260.63
2024-01-18T01:14:17.672Z,99257.69
2024-01-18T01:14:49.252Z,99263.06
2024-01-18T01:15:21.094Z,99261.59
2024-01-18T01:15:52.885Z,99258.34
2024-01-18T01:16:25.379Z,99261.28
2024-01-18T01:16:57.108Z,99262.56
2024-01-18T01:17:28.748Z,99259.69
2024-01-18T01:18:00.431Z,99255.13
2024-01-18T01:18:32.235Z,99258.69
2024-01-18T01:19:03.979Z,99254.13
2024-01-18T01:19:35.873Z,99262.59
2024-01-18T01:20:11.315Z,99254.47
2024-01-18T01:20:42.883Z,99259.31
2024-01-18T01:21:14.517Z,99265.19
2024-01-18T01:21:46.106Z,99268.91
2024-01-18T01:22:17.839Z,99275.88
2024-01-18T01:22:49.395Z,99269.69
2024-01-18T01:23:21.027Z,99269.69
2024-01-18T01:23:53.012Z,99273.44
2024-01-18T01:24:24.691Z,99270.84
2024-01-18T01:24:56.301Z,99271.66
2024-01-18T01:25:27.834Z,99273.91
2024-01-18T01:25:59.572Z,99278.13
2024-01-18T01:26:31.131Z,99285.13
2024-01-18T01:27:02.808Z,99274.56
2024-01-18T01:27:34.439Z,99278.31
2024-01-18T01:28:06.582Z,99284.03
2024-01-18T01:28:38.147Z,99285.31
2024-01-18T01:29:11.833Z,99287.25
2024-01-18T01:29:43.451Z,99284.66
2024-01-18T01:30:15.698Z,99277.81
2024-01-18T01:30:47.315Z,99286.91
2024-01-18T01:31:18.926Z,99281.06
2024-01-18T01:31:52.993Z,99288.69
2024-01-18T01:32:24.609Z,99291.63
2024-01-18T01:32:56.339Z,99291.81
2024-01-18T01:33:29.462Z,99293.91
2024-01-18T01:34:01.959Z,99286.59
2024-01-18T01:34:33.798Z,99290.16
2024-01-18T01:35:05.503Z,99292.44
2024-01-18T01:35:37.067Z,99292.75
2024-01-18T01:36:09.253Z,99296.34
2024-01-18T01:36:40.844Z,99288.56
2024-01-18T01:37:14.849Z,99300.44
2024-01-18T01:37:46.682Z,99297.03
2024-01-18T01:38:18.377Z,99303.53
2024-01-18T01:38:49.919Z,99308.13
2024-01-18T01:39:21.583Z,99309.06
2024-01-18T01:39:53.207Z,99306.47
2024-01-18T01:40:24.780Z,99303.88
2024-01-18T01:40:56.467Z,99313.63
2024-01-18T01:41:28.101Z,99301.44
2024-01-18T01:41:59.700Z,99306.47
2024-01-18T01:42:31.286Z,99303.22
2024-01-18T01:43:02.854Z,99312.47
2024-01-18T01:43:34.442Z,99322.09
2024-01-18T01:44:06.514Z,99321.41
2024-01-18T01:44:38.092Z,99320.13
2024-01-18T01:45:10.438Z,99320.13
2024-01-18T01:45:42.033Z,99322.41
2024-01-18T01:46:14.049Z,99322.69
2024-01-18T01:46:45.630Z,99315.69
2024-01-18T01:47:17.205Z,99326.25
2024-01-18T01:47:48.908Z,99325.91
2024-01-18T01:48:20.858Z,99328.53
2024-01-18T01:48:58.008Z,99324.63
2024-01-18T01:49:29.833Z,99325.09
2024-01-18T01:50:01.961Z,99324.63
2024-01-18T01:50:33.588Z,99322.19
2024-01-18T01:51:05.363Z,99322.00
2024-01-18T01:51:49.180Z,99330.78
2024-01-18T01:52:21.035Z,99326.56
2024-01-18T01:52:52.609Z,99333.06
2024-01-18T01:53:24.248Z,99324.56
2024-01-18T01:53:55.881Z,99322.28
2024-01-18T01:54:30.777Z,99321.84
2024-01-18T01:55:03.581Z,99326.25
2024-01-18T01:55:35.661Z,99320.88
2024-01-18T01:56:07.233Z,99324.63
2024-01-18T01:56:39.446Z,99316.47
2024-01-18T01:57:11.023Z,99315.34
2024-01-18T01:57:47.517Z,99319.41
2024-01-18T01:58:20.576Z,99321.03
2024-01-18T01:58:52.300Z,99321.03
2024-01-18T01:59:24.273Z,99323.66
2024-01-18T01:59:56.705Z,99321.88
2024-01-18T02:00:28.404Z,99319.78
2024-01-18T02:01:00.340Z,99326.63
2024-01-18T02:01:32.133Z,99321.25
2024-01-18T02:02:04.256Z,99321.75
2024-01-18T02:02:35.801Z,99325.31
2024-01-18T02:03:07.486Z,99321.75
2024-01-18T02:03:39.139Z,99325.31
2024-01-18T02:04:10.886Z,99325.97
2024-01-18T02:04:43.414Z,99321.75
2024-01-18T02:05:15.321Z,99324.19
2024-01-18T02:05:47.290Z,99330.19
2024-01-18T02:06:19.045Z,99330.19
2024-01-18T02:06:52.807Z,99329.69
2024-01-18T02:07:26.227Z,99324.47
2024-01-18T02:07:57.832Z,99324.94
2024-01-18T02:08:29.588Z,99323.47
2024-01-18T02:09:05.022Z,99323.31
2024-01-18T02:09:39.007Z,99326.88
2024-01-18T02:10:11.235Z,99324.53
2024-01-18T02:10:43.095Z,99322.88
2024-01-18T02:11:15.289Z,99324.66
2024-01-18T02:11:47.018Z,99324.81
2024-01-18T02:12:19.501Z,99321.88
2024-01-18T02:12:53.866Z,99322.00
2024-01-18T02:13:26.011Z,99325.59
2024-01-18T02:13:58.142Z,99328.41
2024-01-18T02:14:29.768Z,99327.44
2024-01-18T02:15:01.587Z,99322.06
2024-01-18T02:15:35.357Z,99324.50
2024-01-18T02:16:07.066Z,99322.41
2024-01-18T02:16:38.663Z,99323.00
2024-01-18T02:17:10.441Z,99325.78
2024-01-18T02:17:42.006Z,99324.91
2024-01-18T02:18:13.788Z,99325.22
2024-01-18T02:18:45.614Z,99331.22
2024-01-18T02:19:17.375Z,99327.66
2024-01-18T02:19:49.225Z,99330.28
2024-01-18T02:20:20.880Z,99323.50
2024-01-18T02:20:52.458Z,99327.09
2024-01-18T02:21:27.040Z,99330.34
2024-01-18T02:22:00.359Z,99328.97
2024-01-18T02:22:33.895Z,99331.72
2024-01-18T02:23:06.435Z,99327.34
2024-01-18T02:23:39.186Z,99329.78
2024-01-18T02:24:23.838Z,99326.50
2024-01-18T02:25:20.023Z,99330.56
2024-01-18T02:25:51.797Z,99326.03
2024-01-18T02:26:23.487Z,99330.59
2024-01-18T02:26:55.122Z,99336.44
2024-01-18T02:27:27.120Z,99333.34
2024-01-18T02:27:59.178Z,99332.19
2024-01-18T02:28:30.724Z,99334.78
2024-01-18T02:29:02.268Z,99330.56
2024-01-18T02:29:33.902Z,99338.19
2024-01-18T02:30:06.158Z,99336.72
2024-01-18T02:30:37.830Z,99332.66
2024-01-18T02:31:09.404Z,99339.47
2024-01-18T02:31:40.974Z,99341.09
2024-01-18T02:32:12.529Z,99338.53
2024-01-18T02:32:44.181Z,99346.50
2024-01-18T02:33:15.901Z,99343.91
2024-01-18T02:33:47.882Z,99344.72
2024-01-18T02:34:19.590Z,99341.28
2024-01-18T02:34:51.307Z,99342.22
2024-01-18T02:35:22.922Z,99349.38
2024-01-18T02:35:54.654Z,99341.59
2024-01-18T02:36:26.240Z,99345.88
2024-01-18T02:36:57.936Z,99343.25
2024-01-18T02:37:29.546Z,99343.41
2024-01-18T02:38:01.236Z,99343.47
2024-01-18T02:38:32.759Z,99343.63
2024-01-18T02:39:04.663Z,99341.63
2024-01-18T02:39:36.592Z,99337.06
2024-01-18T02:40:08.686Z,99336.41
2024-01-18T02:40:40.404Z,99346.25
2024-01-18T02:41:11.996Z,99338.44
2024-01-18T02:41:43.919Z,99336.38
2024-01-18T02:42:15.483Z,99344.63
2024-01-18T02:42:47.445Z,99347.72
2024-01-18T02:43:19.134Z,99341.69
2024-01-18T02:43:50.748Z,99341.97
2024-01-18T02:44:22.441Z,99340.66
2024-01-18T02:44:55.437Z,99346.84
2024-01-18T02:45:27.124Z,99346.19
2024-01-18T02:45:58.846Z,99336.91
2024-01-18T02:46:33.873Z,99344.88
2024-01-18T02:47:05.681Z,99348.44
2024-01-18T02:47:37.372Z,99351.19
2024-01-18T02:48:09.203Z,99347.00
2024-01-18T02:48:40.846Z,99348.78
2024-01-18T02:49:12.501Z,99350.09
2024-01-18T02:49:44.123Z,99347.06
2024-01-18T02:50:15.905Z,99349.94
2024-01-18T02:50:47.439Z,99348.16
2024-01-18T02:51:19.030Z,99343.63
2024-01-18T02:51:50.620Z,99351.38
2024-01-18T02:52:22.166Z,99351.66
2024-01-18T02:52:53.708Z,99346.50
2024-01-18T02:53:25.281Z,99346.25
2024-01-18T02:53:56.801Z,99345.28
2024-01-18T02:54:28.428Z,99342.28
2024-01-18T02:55:00.006Z,99346.25
2024-01-18T02:55:31.554Z,99346.91
2024-01-18T02:56:03.224Z,99353.41
2024-01-18T02:56:34.772Z,99353.59
2024-01-18T02:57:06.461Z,99352.78
2024-01-18T02:57:38.182Z,99354.41
2024-01-18T02:58:09.857Z,99351.97
2024-01-18T02:58:41.811Z,99349.84
2024-01-18T02:59:13.375Z,99357.56
2024-01-18T02:59:44.887Z,99359.50
2024-01-18T03:00:16.626Z,99353.06
2024-01-18T03:00:48.769Z,99356.09
2024-01-18T03:01:20.483Z,99359.31
2024-01-18T03:01:52.049Z,99356.88
2024-01-18T03:02:23.628Z,99359.97
2024-01-18T03:02:55.156Z,99353.31
2024-01-18T03:03:26.938Z,99357.19
2024-01-18T03:03:58.784Z,99357.84
2024-01-18T03:04:30.476Z,99352.97
2024-01-18T03:05:02.070Z,99352.47
2024-01-18T03:05:35.201Z,99355.22
2024-01-18T03:06:07.063Z,99360.41
2024-01-18T03:06:38.761Z,99359.94
2024-01-18T03:07:10.344Z,99353.94
2024-01-18T03:07:41.976Z,99356.84
2024-01-18T03:08:13.770Z,99355.88
2024-01-18T03:08:45.320Z,99361.06
2024-01-18T03:09:16.914Z,99356.50
2024-01-18T03:09:49.262Z,99356.19
2024-01-18T03:10:23.237Z,99355.25
2024-01-18T03:10:55.013Z,99349.09
2024-01-18T03:11:26.774Z,99352.00
2024-01-18T03:11:58.359Z,99351.00
2024-01-18T03:12:30.077Z,99353.91
2024-01-18T03:13:01.623Z,99355.53
2024-01-18T03:13:33.165Z,99351.00
2024-01-18T03:14:04.749Z,99350.78
2024-01-18T03:14:38.045Z,99350.78
2024-01-18T03:15:11.589Z,99352.44
2024-01-18T03:15:43.202Z,99351.63
2024-01-18T03:16:16.444Z,99349.28
2024-01-18T03:16:48.109Z,99344.56
2024-01-18T03:17:19.637Z,99354.75
2024-01-18T03:17:51.338Z,99345.81
2024-01-18T03:18:22.905Z,99353.44
2024-01-18T03:18:54.497Z,99356.69
2024-01-18T03:19:26.295Z,99348.56
2024-01-18T03:19:58.743Z,99353.91
2024-01-18T03:20:30.339Z,99352.44
2024-01-18T03:21:06.710Z,99345.88
2024-01-18T03:21:38.462Z,99344.09
2024-01-18T03:22:10.064Z,99348.56
2024-01-18T03:22:42.143Z,99353.44
2024-01-18T03:23:13.789Z,99345.34
2024-01-18T03:23:45.367Z,99342.75
2024-01-18T03:24:17.061Z,99347.63
2024-01-18T03:24:48.696Z,99344.41
2024-01-18T03:25:20.253Z,99344.75
2024-01-18T03:25:51.801Z,99339.88
2024-01-18T03:26:23.358Z,99342.84
2024-01-18T03:26:55.358Z,99339.06
2024-01-18T03:27:27.294Z,99341.16
2024-01-18T03:27:59.653Z,99347.16
2024-01-18T03:28:31.186Z,99347.63
2024-01-18T03:29:02.795Z,99346.81
2024-01-18T03:29:34.407Z,99339.53
2024-01-18T03:30:08.737Z,99347.47
2024-01-18T03:30:41.766Z,99345.69
2024-01-18T03:31:13.808Z,99339.84
2024-01-18T03:31:45.348Z,99343.09
2024-01-18T03:32:16.991Z,99342.44
2024-01-18T03:32:48.577Z,99345.38
2024-01-18T03:33:20.275Z,99341.47
2024-01-18T03:33:51.942Z,99345.50
2024-01-18T03:34:23.599Z,99347.94
2024-01-18T03:34:55.247Z,99343.66
2024-01-18T03:35:26.788Z,99339.78
2024-01-18T03:35:58.820Z,99339.78
2024-01-18T03:36:30.492Z,99337.06
2024-01-18T03:37:02.025Z,99344.03
2024-01-18T03:37:33.549Z,99344.34
2024-01-18T03:38:05.121Z,99346.63
2024-01-18T03:38:37.076Z,99340.63
2024-01-18T03:39:10.242Z,99344.38
2024-01-18T03:39:41.942Z,99344.69
2024-01-18T03:40:13.622Z,99340.78
2024-01-18T03:40:45.155Z,99344.66
2024-01-18T03:41:16.865Z,99343.84
2024-01-18T03:41:48.515Z,99341.63
2024-01-18T03:42:20.137Z,99338.78
2024-01-18T03:42:51.692Z,99339.72
2024-01-18T03:43:23.215Z,99342.31
2024-01-18T03:43:54.758Z,99336.47
2024-01-18T03:44:26.373Z,99333.06
2024-01-18T03:44:57.951Z,99343.44
2024-01-18T03:45:29.529Z,99342.63
2024-01-18T03:46:01.167Z,99329.91
2024-01-18T03:46:32.843Z,99335.75
2024-01-18T03:47:04.774Z,99328.78
2024-01-18T03:47:36.551Z,99338.06
2024-01-18T03:48:08.230Z,99331.22
2024-01-18T03:48:39.874Z,99335.91
2024-01-18T03:49:11.558Z,99335.41
2024-01-18T03:49:44.326Z,99343.25
2024-01-18T03:50:16.171Z,99341.56
2024-01-18T03:50:47.744Z,99340.75
2024-01-18T03:51:19.415Z,99339.97
2024-01-18T03:51:51.046Z,99342.88
2024-01-18T03:52:22.947Z,99340.66
2024-01-18T03:52:54.476Z,99342.13
2024-01-18T03:53:26.061Z,99341.00
2024-01-18T03:53:57.728Z,99349.44
2024-01-18T03:54:29.510Z,99351.06
2024-01-18T03:55:01.105Z,99354.63
2024-01-18T03:55:32.650Z,99356.56
2024-01-18T03:56:04.431Z,99353.31
2024-01-18T03:56:36.004Z,99343.06
2024-01-18T03:57:07.590Z,99353.00
2024-01-18T03:57:40.642Z,99350.72
2024-01-18T03:58:12.563Z,99358.56
2024-01-18T03:58:44.733Z,99358.25
2024-01-18T03:59:16.484Z,99346.63
2024-01-18T03:59:48.845Z,99355.56
2024-01-18T04:00:20.744Z,99347.78
2024-01-18T04:00:52.761Z,99361.16
2024-01-18T04:01:24.923Z,99359.88
2024-01-18T04:01:57.648Z,99357.75
2024-01-18T04:02:29.228Z,99353.59
2024-01-18T04:03:00.854Z,99356.19
2024-01-18T04:03:32.603Z,99359.63
2024-01-18T04:04:04.600Z,99356.16
2024-01-18T04:04:36.275Z,99357.81
2024-01-18T04:05:08.391Z,99350.19
2024-01-18T04:05:40.188Z,99358.09
2024-01-18T04:06:13.088Z,99349.66
2024-01-18T04:06:45.018Z,99353.53
2024-01-18T04:07:17.260Z,99349.00
2024-01-18T04:07:48.801Z,99350.63
2024-01-18T04:08:20.420Z,99355.03
2024-01-18T04:08:52.040Z,99359.00
2024-01-18T04:09:23.636Z,99358.31
2024-01-18T04:09:55.195Z,99358.00
2024-01-18T04:10:26.748Z,99363.88
2024-01-18T04:10:58.373Z,99358.41
2024-01-18T04:11:30.757Z,99359.47
2024-01-18T04:12:02.367Z,99358.25
2024-01-18T04:12:33.975Z,99358.66
2024-01-18T04:13:05.545Z,99355.25
2024-01-18T04:13:37.086Z,99355.72
2024-01-18T04:14:08.941Z,99359.00
2024-01-18T04:14:44.237Z,99358.09
2024-01-18T04:15:15.891Z,99361.09
2024-01-18T04:15:47.502Z,99365.97
2024-01-18T04:16:19.430Z,99359.66
2024-01-18T04:16:50.944Z,99357.69
2024-01-18T04:17:22.518Z,99366.03
2024-01-18T04:17:54.117Z,99374.72
2024-01-18T04:18:25.807Z,99366.56
2024-01-18T04:18:57.615Z,99368.41
2024-01-18T04:19:29.280Z,99371.47
2024-01-18T04:20:01.668Z,99369.38
2024-01-18T04:20:33.586Z,99372.31
2024-01-18T04:21:05.452Z,99365.78
2024-01-18T04:21:37.195Z,99367.75
2024-01-18T04:22:09.059Z,99366.25
2024-01-18T04:22:40.641Z,99369.09
2024-01-18T04:23:12.249Z,99373.25
2024-01-18T04:23:43.894Z,99379.94
2024-01-18T04:24:15.480Z,99374.91
2024-01-18T04:24:47.096Z,99373.84
2024-01-18T04:25:18.682Z,99375.97
2024-01-18T04:25:53.457Z,99377.97
2024-01-18T04:26:26.115Z,99378.09
2024-01-18T04:26:57.822Z,99374.13
2024-01-18T04:27:29.610Z,99375.69
2024-01-18T04:28:01.358Z,99378.09
2024-01-18T04:28:33.014Z,99373.66
2024-01-18T04:29:04.678Z,99373.66
2024-01-18T04:29:36.323Z,99379.88
2024-01-18T04:30:09.519Z,99374.09
2024-01-18T04:30:41.353Z,99377.97
2024-01-18T04:31:13.031Z,99379.06
2024-01-18T04:31:45.064Z,99382.63
2024-01-18T04:32:16.721Z,99386.44
2024-01-18T04:32:48.296Z,99382.28
2024-01-18T04:33:20.189Z,99388.81
2024-01-18T04:33:52.013Z,99393.06
2024-01-18T04:34:23.716Z,99388.19
2024-01-18T04:34:55.301Z,99388.63
2024-01-18T04:35:26.978Z,99389.16
2024-01-18T04:35:59.113Z,99388.28
2024-01-18T04:36:30.725Z,99385.63
2024-01-18T04:37:02.284Z,99385.06
2024-01-18T04:37:33.885Z,99381.81
2024-01-18T04:38:05.496Z,99387.00
2024-01-18T04:38:38.421Z,99398.03
2024-01-18T04:39:10.669Z,99386.03
2024-01-18T04:39:42.525Z,99389.13
2024-01-18T04:40:14.119Z,99393.06
2024-01-18T04:40:45.832Z,99390.00
2024-01-18T04:41:17.407Z,99389.72
2024-01-18T04:41:48.969Z,99384.63
2024-01-18T04:42:21.240Z,99391.44
2024-01-18T04:42:54.012Z,99391.81
2024-01-18T04:43:25.589Z,99386.91
2024-01-18T04:43:57.134Z,99394.97
2024-01-18T04:44:28.727Z,99387.13
2024-01-18T04:45:00.567Z,99406.09
2024-01-18T04:45:32.313Z,99393.50
2024-01-18T04:46:05.480Z,99396.91
2024-01-18T04:46:37.158Z,99397.47
2024-01-18T04:47:09.919Z,99399.13
2024-01-18T04:47:42.294Z,99391.38
2024-01-18T04:48:14.050Z,99391.78
2024-01-18T04:48:46.069Z,99401.28
2024-01-18T04:49:17.664Z,99399.97
2024-01-18T04:49:49.281Z,99402.25
2024-01-18T04:50:25.422Z,99399.94
2024-01-18T04:50:57.000Z,99406.16
2024-01-18T04:51:28.948Z,99406.16
2024-01-18T04:52:01.198Z,99408.66
2024-01-18T04:52:33.514Z,99413.97
2024-01-18T04:53:05.147Z,99409.75
2024-01-18T04:53:36.714Z,99400.16
2024-01-18T04:54:08.422Z,99401.19
2024-01-18T04:54:42.694Z,99405.06
2024-01-18T04:55:14.307Z,99405.81
2024-01-18T04:55:45.891Z,99410.50
2024-01-18T04:56:17.686Z,99410.03
2024-01-18T04:56:49.315Z,99412.78
2024-01-18T04:57:20.919Z,99409.66
2024-01-18T04:57:52.543Z,99411.41
2024-01-18T04:58:24.177Z,99407.94
2024-01-18T04:58:55.742Z,99417.63
2024-01-18T04:59:27.387Z,99411.41
2024-01-18T04:59:59.481Z,99413.72
2024-01-18T05:00:31.154Z,99413.03
2024-01-18T05:01:03.151Z,99412.75
2024-01-18T05:01:38.613Z,99417.63
2024-01-18T05:02:10.564Z,99413.78
2024-01-18T05:02:42.790Z,99415.63
2024-01-18T05:03:14.517Z,99416.00
2024-01-18T05:03:49.120Z,99414.94
2024-01-18T05:04:20.879Z,99411.41
2024-01-18T05:04:52.639Z,99418.09
2024-01-18T05:05:24.374Z,99425.19
2024-01-18T05:05:58.988Z,99417.72
2024-01-18T05:06:31.250Z,99421.78
2024-01-18T05:07:03.068Z,99423.28
2024-01-18T05:07:35.618Z,99433.19
2024-01-18T05:08:08.545Z,99419.69
2024-01-18T05:08:40.112Z,99420.66
2024-01-18T05:09:11.658Z,99422.44
2024-01-18T05:09:43.603Z,99420.25
2024-01-18T05:10:15.203Z,99421.91
2024-01-18T05:10:46.728Z,99430.34
2024-01-18T05:11:18.317Z,99433.59
2024-01-18T05:11:49.857Z,99422.78
2024-01-18T05:12:21.443Z,99418.13
2024-01-18T05:12:53.410Z,99425.44
2024-01-18T05:13:25.016Z,99431.69
2024-01-18T05:13:56.728Z,99438.22
2024-01-18T05:14:28.516Z,99431.94
2024-01-18T05:15:00.064Z,99434.41
2024-01-18T05:15:31.972Z,99432.09
2024-01-18T05:16:03.749Z,99424.78
2024-01-18T05:16:40.712Z,99437.31
2024-01-18T05:17:13.105Z,99436.84
2024-01-18T05:17:48.463Z,99438.41
2024-01-18T05:18:20.548Z,99435.41
2024-01-18T05:18:52.183Z,99437.03
2024-01-18T05:19:23.748Z,99438.91
2024-01-18T05:19:55.971Z,99443.94
2024-01-18T05:20:27.864Z,99440.31
2024-01-18T05:21:00.168Z,99444.66
2024-01-18T05:21:31.752Z,99433.91
2024-01-18T05:22:03.410Z,99443.47
2024-01-18T05:22:35.898Z,99443.41
2024-01-18T05:23:07.536Z,99440.69
2024-01-18T05:23:39.068Z,99441.50
2024-01-18T05:24:10.591Z,99443.66
2024-01-18T05:24:42.454Z,99443.75
2024-01-18T05:25:14.996Z,99446.75
2024-01-18T05:25:46.644Z,99445.13
2024-01-18T05:26:18.198Z,99446.19
2024-01-18T05:26:49.719Z,99434.97
2024-01-18T05:27:21.360Z,99448.91
2024-01-18T05:27:53.019Z,99443.06
2024-01-18T05:28:25.036Z,99446.16
2024-01-18T05:28:56.931Z,99447.88
2024-01-18T05:29:28.484Z,99439.88
2024-01-18T05:30:01.027Z,99440.97
2024-01-18T05:30:32.859Z,99442.59
2024-01-18T05:31:04.680Z,99445.34
2024-01-18T05:31:36.281Z,99448.84
2024-01-18T05:32:07.850Z,99439.59
2024-01-18T05:32:39.481Z,99443.66
2024-01-18T05:33:11.140Z,99443.28
2024-01-18T05:33:42.797Z,99457.81
2024-01-18T05:34:14.694Z,99451.53
2024-01-18T05:34:46.348Z,99446.03
2024-01-18T05:35:18.041Z,99442.75
2024-01-18T05:35:50.672Z,99449.97
2024-01-18T05:36:22.379Z,99450.34
2024-01-18T05:36:53.930Z,99444.78
2024-01-18T05:37:25.603Z,99450.66
2024-01-18T05:37:57.145Z,99454.25
2024-01-18T05:38:34.728Z,99455.41
2024-01-18T05:39:09.868Z,99453.78
2024-01-18T05:39:41.504Z,99454.19
2024-01-18T05:40:13.594Z,99449.59
2024-01-18T05:40:46.577Z,99461.72
2024-01-18T05:41:18.151Z,99457.34
2024-01-18T05:41:49.708Z,99449.41
2024-01-18T05:42:21.585Z,99455.94
2024-01-18T05:42:53.477Z,99452.13
2024-01-18T05:43:25.060Z,99455.66
2024-01-18T05:43:56.604Z,99450.91
2024-01-18T05:44:29.752Z,99458.09
2024-01-18T05:45:01.444Z,99462.75
2024-01-18T05:45:33.179Z,99457.03
2024-01-18T05:46:05.182Z,99456.91
2024-01-18T05:46:36.787Z,99458.25
2024-01-18T05:47:09.354Z,99455.53
2024-01-18T05:47:41.206Z,99453.50
2024-01-18T05:48:13.202Z,99465.47
2024-01-18T05:48:45.151Z,99457.81
2024-01-18T05:49:16.858Z,99457.81
2024-01-18T05:49:48.562Z,99461.88
2024-01-18T05:50:20.197Z,99462.84
2024-01-18T05:50:51.804Z,99454.53
2024-01-18T05:51:23.391Z,99458.94
2024-01-18T05:51:55.060Z,99457.03
2024-01-18T05:52:28.795Z,99466.34
2024-01-18T05:53:00.375Z,99459.00
2024-01-18T05:53:32.049Z,99464.44
2024-01-18T05:54:03.837Z,99463.63
2024-01-18T05:54:35.529Z,99471.25
2024-01-18T05:55:07.496Z,99473.03
2024-01-18T05:55:39.072Z,99469.91
2024-01-18T05:56:10.983Z,99472.31
2024-01-18T05:56:42.800Z,99475.47
2024-01-18T05:57:14.493Z,99481.22
2024-01-18T05:57:46.437Z,99476.56
2024-01-18T05:58:18.088Z,99478.75
2024-01-18T05:58:50.367Z,99474.28
2024-01-18T05:59:21.959Z,99481.47
2024-01-18T05:59:54.115Z,99470.88
2024-01-18T06:00:25.755Z,99474.53
2024-01-18T06:00:57.443Z,99485.00
2024-01-18T06:01:29.058Z,99483.81
2024-01-18T06:02:01.033Z,99484.91
2024-01-18T06:02:33.107Z,99487.38
2024-01-18T06:03:04.751Z,99479.47
2024-01-18T06:03:36.818Z,99477.81
2024-01-18T06:04:08.520Z,99483.69
2024-01-18T06:04:40.127Z,99483.03
2024-01-18T06:05:13.030Z,99479.19
2024-01-18T06:05:44.815Z,99485.44
2024-01-18T06:06:16.684Z,99483.97
2024-01-18T06:06:48.708Z,99480.56
2024-01-18T06:07:20.508Z,99480.56
2024-01-18T06:07:52.851Z,99486.53
2024-01-18T06:08:24.439Z,99483.28
2024-01-18T06:08:55.964Z,99492.53
2024-01-18T06:09:27.634Z,99491.16
2024-01-18T06:10:00.689Z,99492.25
2024-01-18T06:10:32.581Z,99496.47
2024-01-18T06:11:04.446Z,99497.56
2024-01-18T06:11:36.344Z,99490.34
2024-01-18T06:12:08.077Z,99494.44
2024-01-18T06:12:39.884Z,99488.16
2024-01-18T06:13:11.575Z,99497.56
2024-01-18T06:13:43.101Z,99500.69
2024-01-18T06:14:14.760Z,99502.03
2024-01-18T06:14:46.294Z,99500.41
2024-01-18T06:15:19.669Z,99505.31
2024-01-18T06:15:51.554Z,99495.50
2024-01-18T06:16:23.154Z,99510.75